Air Quality Table

TIMESTAMP NO2 O3 PM2.5 TEMP HUM AIRPRES WS WD NO
2022-11-26 09:00 9.79 µg/m3 64.73 µg/m3 1.72 µg/m3 16.92 °C N/A 1,004.38 mbar 1.65 m/s 217.19 Deg 0.65 µg/m3
2022-11-26 01:00 45.2 µg/m3 19.31 µg/m3 8.29 µg/m3 14.87 °C N/A 1,008.41 mbar 0.45 m/s 284.54 Deg 11.58 µg/m3
2022-11-25 17:00 8.6 µg/m3 75.23 µg/m3 2.62 µg/m3 19.29 °C N/A 1,008.83 mbar 1.03 m/s 252.01 Deg 1.08 µg/m3
2022-11-25 09:00 N/A 57.88 µg/m3 0.98 µg/m3 15.25 °C N/A 1,008.15 mbar 0.54 m/s 310.72 Deg N/A
2022-11-25 01:00 N/A 75.47 µg/m3 2.51 µg/m3 16.69 °C N/A 1,006.01 mbar 1.07 m/s 328.98 Deg N/A
2022-11-24 17:00 N/A 72.42 µg/m3 3.97 µg/m3 19.64 °C N/A 1,003.41 mbar 1.94 m/s 320.13 Deg N/A
2022-11-24 09:00 N/A 57.22 µg/m3 2.85 µg/m3 18.36 °C N/A 1,000.83 mbar 1.77 m/s 321.05 Deg N/A
2022-11-24 01:00 N/A 68.86 µg/m3 0.76 µg/m3 17.74 °C N/A 999.53 mbar 2.2 m/s 315.68 Deg N/A
2022-11-23 17:00 N/A 76.68 µg/m3 2.51 µg/m3 18.63 °C N/A 998.28 mbar 2.62 m/s 308.22 Deg N/A
2022-11-23 09:00 N/A 77.91 µg/m3 0.82 µg/m3 15.86 °C N/A 998.69 mbar 1.84 m/s 312.82 Deg N/A
2022-11-23 01:00 N/A 82.86 µg/m3 1.92 µg/m3 16.46 °C N/A 999.50 mbar 2.52 m/s 309.21 Deg N/A
2022-11-22 17:00 N/A 80.45 µg/m3 7.61 µg/m3 18.54 °C N/A 997.32 mbar 4.14 m/s 295.58 Deg N/A
2022-11-22 09:00 N/A 87.07 µg/m3 2.47 µg/m3 18.03 °C N/A 999.72 mbar 4.66 m/s 265.88 Deg N/A
2022-11-22 01:00 N/A 83.63 µg/m3 0.42 µg/m3 17.41 °C N/A 1,004.72 mbar 2.01 m/s 287.7 Deg N/A
2022-11-21 17:00 N/A 78.14 µg/m3 1.51 µg/m3 17.68 °C N/A 1,005.37 mbar 1.7 m/s 323.8 Deg N/A
2022-11-21 09:00 N/A 77.24 µg/m3 1.09 µg/m3 15.93 °C N/A 1,003.95 mbar 1.67 m/s 328.61 Deg N/A
2022-11-21 01:00 N/A 80.28 µg/m3 0.38 µg/m3 16.58 °C N/A 1,001.60 mbar 1.8 m/s 321.92 Deg N/A
2022-11-20 17:00 N/A 80.5 µg/m3 2.56 µg/m3 15.96 °C N/A 998.02 mbar 2.11 m/s 311.57 Deg N/A
2022-11-20 09:00 N/A 57.21 µg/m3 9.68 µg/m3 17.88 °C N/A 996.85 mbar 1.48 m/s 271.52 Deg N/A
2022-11-20 01:00 N/A 68.44 µg/m3 14.46 µg/m3 21.09 °C N/A 997.88 mbar 1.95 m/s 258.94 Deg N/A

It is to be noted that the data is provisional and subject to quality assurance procedures. For validated data kindly refer your request to contact.air@era.org.mt